Time;durP1;ratioP1;P1;durP2;ratioP2;P2;SDS_P1;SDS_P2;PMS_P1;PMS_P2;Temp;Humidity;BMP_temperature;BMP_pressure;BME280_temperature;BME280_humidity;BME280_pressure;Samples;Min_cycle;Max_cycle;Signal;HPM_P1;HPM_P2
2024/01/03 00:00:18;;;;;;;3.17;2.10;;;18.60;64.90;;;;;;5091137;28;20234;-68
2024/01/03 00:02:45;;;;;;;3.28;2.30;;;18.70;64.90;;;;;;5090453;28;20219;-67
2024/01/03 00:05:12;;;;;;;3.47;2.20;;;18.70;64.90;;;;;;5096758;28;20184;-67
2024/01/03 00:07:39;;;;;;;3.45;2.30;;;18.60;64.80;;;;;;5090781;28;20219;-67
2024/01/03 00:10:49;;;;;;;4.07;2.20;;;18.60;64.80;;;;;;5108878;28;20176;-67
2024/01/03 00:13:32;;;;;;;2.63;2.30;;;18.60;64.80;;;;;;5074398;28;20220;-67
2024/01/03 00:16:01;;;;;;;2.92;2.30;;;18.60;64.80;;;;;;5082634;28;20580;-67
2024/01/03 00:18:54;;;;;;;2.50;2.10;;;18.60;64.80;;;;;;5101401;28;20241;-68
2024/01/03 00:21:26;;;;;;;3.72;2.10;;;18.60;64.80;;;;;;5091242;28;20185;-68
2024/01/03 00:24:14;;;;;;;3.65;2.33;;;18.70;64.90;;;;;;5091371;28;20303;-67
2024/01/03 00:26:41;;;;;;;4.13;2.22;;;18.70;64.90;;;;;;5098630;28;20196;-67
2024/01/03 00:29:26;;;;;;;3.00;2.10;;;18.60;64.80;;;;;;5077533;28;20208;-68
2024/01/03 00:31:52;;;;;;;3.03;2.30;;;18.60;64.70;;;;;;5089528;28;20245;-68
2024/01/03 00:34:21;;;;;;;2.80;1.88;;;18.60;64.80;;;;;;5083745;28;20204;-68
2024/01/03 00:36:52;;;;;;;3.22;2.15;;;18.60;64.70;;;;;;5092369;28;20200;-68
2024/01/03 00:39:47;;;;;;;2.35;2.00;;;18.60;64.70;;;;;;5101442;28;20252;-67
2024/01/03 00:42:12;;;;;;;2.25;1.77;;;18.60;64.70;;;;;;5077498;28;20318;-67
2024/01/03 00:44:38;;;;;;;2.63;1.80;;;18.60;64.70;;;;;;5106528;28;20188;-67
2024/01/03 00:47:05;;;;;;;2.90;2.00;;;18.60;64.70;;;;;;5073288;28;20192;-68
2024/01/03 00:49:31;;;;;;;2.70;1.75;;;18.60;64.70;;;;;;5080066;28;20218;-67
2024/01/03 00:52:00;;;;;;;3.17;2.00;;;18.60;64.80;;;;;;5078404;28;20543;-68
2024/01/03 00:54:29;;;;;;;4.22;1.92;;;18.60;64.70;;;;;;5083353;28;20200;-67
2024/01/03 00:56:55;;;;;;;2.35;1.50;;;18.60;64.70;;;;;;5090063;28;20189;-66
2024/01/03 00:59:21;;;;;;;2.63;1.75;;;18.60;64.70;;;;;;5100194;28;20249;-68
2024/01/03 01:01:47;;;;;;;2.15;1.65;;;18.60;64.70;;;;;;5074098;28;20196;-68
2024/01/03 01:04:15;;;;;;;2.50;1.65;;;18.60;64.70;;;;;;5082730;28;20205;-67
2024/01/03 01:06:43;;;;;;;2.15;1.95;;;18.60;64.60;;;;;;5086569;28;20287;-67
2024/01/03 01:09:09;;;;;;;3.13;2.10;;;18.60;64.60;;;;;;5087285;28;20304;-67
2024/01/03 01:11:36;;;;;;;3.70;1.90;;;18.60;64.60;;;;;;5076603;28;20177;-67
2024/01/03 01:14:02;;;;;;;2.58;1.70;;;18.60;64.60;;;;;;5078456;28;20213;-67
2024/01/03 01:16:28;;;;;;;3.55;1.92;;;18.70;64.70;;;;;;5102179;28;20173;-67
2024/01/03 01:18:53;;;;;;;3.25;1.60;;;18.60;64.60;;;;;;5084519;28;20238;-68
2024/01/03 01:21:21;;;;;;;1.80;1.70;;;18.60;64.60;;;;;;5081565;28;20296;-68
2024/01/03 01:23:49;;;;;;;2.42;1.67;;;18.60;64.60;;;;;;5085340;28;20208;-68
2024/01/03 01:26:15;;;;;;;2.95;1.60;;;18.60;64.60;;;;;;5088092;28;20577;-68
2024/01/03 01:28:42;;;;;;;5.25;2.17;;;18.70;64.70;;;;;;5103553;28;20205;-67
2024/01/03 01:31:08;;;;;;;2.72;1.80;;;18.70;64.70;;;;;;5075787;28;20195;-67
2024/01/03 01:33:34;;;;;;;2.67;1.67;;;18.70;64.70;;;;;;5094127;28;20209;-67
2024/01/03 01:35:59;;;;;;;1.98;1.63;;;18.60;64.60;;;;;;5086691;28;20185;-68
2024/01/03 01:38:26;;;;;;;2.33;1.77;;;18.60;64.60;;;;;;5106403;28;20199;-68
2024/01/03 01:40:51;;;;;;;1.67;1.40;;;18.70;64.70;;;;;;5100172;28;20197;-68
2024/01/03 01:43:17;;;;;;;1.50;1.40;;;18.60;64.60;;;;;;5086464;28;20208;-67
2024/01/03 01:45:47;;;;;;;2.05;1.60;;;18.60;64.60;;;;;;5100834;28;20240;-67
2024/01/03 01:48:15;;;;;;;1.92;1.60;;;18.60;64.60;;;;;;5096933;28;20216;-68
2024/01/03 01:50:41;;;;;;;1.88;1.60;;;18.60;64.60;;;;;;5100989;28;20181;-67
2024/01/03 01:53:08;;;;;;;1.92;1.50;;;18.60;64.60;;;;;;5081944;28;20730;-68
2024/01/03 01:55:38;;;;;;;1.80;1.50;;;18.60;64.60;;;;;;5105035;28;20219;-67
2024/01/03 01:58:07;;;;;;;1.98;1.70;;;18.60;64.60;;;;;;5111954;28;20219;-67
2024/01/03 02:00:34;;;;;;;2.08;1.42;;;18.60;64.50;;;;;;5101776;28;20203;-67
2024/01/03 02:03:01;;;;;;;2.65;1.60;;;18.60;64.60;;;;;;5099876;28;20251;-68
2024/01/03 02:05:27;;;;;;;3.80;1.80;;;18.60;64.60;;;;;;5079884;28;20177;-68
2024/01/03 02:07:52;;;;;;;2.60;1.70;;;18.60;64.60;;;;;;5081060;28;20538;-68
2024/01/03 02:10:18;;;;;;;3.20;1.77;;;18.60;64.60;;;;;;5096813;28;20188;-68
2024/01/03 02:12:44;;;;;;;1.60;1.40;;;18.60;64.60;;;;;;5081908;28;20236;-67
2024/01/03 02:15:09;;;;;;;1.73;1.50;;;18.70;64.70;;;;;;5109060;28;20185;-67
2024/01/03 02:17:38;;;;;;;1.83;1.60;;;18.60;64.60;;;;;;5083753;28;20240;-68
2024/01/03 02:20:04;;;;;;;1.73;1.27;;;18.60;64.60;;;;;;5101003;28;20177;-67
2024/01/03 02:22:31;;;;;;;1.88;1.60;;;18.60;64.50;;;;;;5124383;27;20321;-68
2024/01/03 02:24:57;;;;;;;2.28;1.50;;;18.60;64.50;;;;;;5082262;28;20186;-67
2024/01/03 02:27:23;;;;;;;1.50;1.27;;;18.60;64.50;;;;;;5084083;28;20572;-68
2024/01/03 02:29:48;;;;;;;1.55;1.45;;;18.60;64.50;;;;;;5095488;28;20185;-67
2024/01/03 02:32:14;;;;;;;2.35;1.52;;;18.60;64.50;;;;;;5076783;28;20185;-67
2024/01/03 02:34:40;;;;;;;1.95;1.52;;;18.60;64.50;;;;;;5079731;28;20191;-68
2024/01/03 02:37:10;;;;;;;2.47;1.60;;;18.60;64.50;;;;;;5097639;28;20188;-68
2024/01/03 02:39:36;;;;;;;1.90;1.20;;;18.60;64.50;;;;;;5085682;28;20198;-68
2024/01/03 02:42:01;;;;;;;1.48;1.27;;;18.60;64.50;;;;;;5077717;28;20184;-68
2024/01/03 02:44:27;;;;;;;1.83;1.55;;;18.60;64.50;;;;;;5097014;28;20220;-68
2024/01/03 02:46:57;;;;;;;2.05;1.60;;;18.60;64.60;;;;;;5091705;28;20196;-68
2024/01/03 02:49:22;;;;;;;1.90;1.38;;;18.60;64.50;;;;;;5096205;28;20208;-67
2024/01/03 02:51:49;;;;;;;1.42;1.30;;;18.60;64.50;;;;;;5085275;28;20188;-67
2024/01/03 02:54:15;;;;;;;1.38;1.13;;;18.60;64.40;;;;;;5100919;28;20202;-68
2024/01/03 02:56:41;;;;;;;1.33;1.00;;;18.60;64.50;;;;;;5081834;28;20196;-67
2024/01/03 02:59:07;;;;;;;1.77;1.45;;;18.60;64.50;;;;;;5079525;28;20193;-67
2024/01/03 03:01:34;;;;;;;1.15;1.05;;;18.60;64.50;;;;;;5075678;28;20262;-67
2024/01/03 03:03:59;;;;;;;1.50;1.30;;;18.60;64.50;;;;;;5102889;28;20213;-67
2024/01/03 03:06:26;;;;;;;1.83;1.35;;;18.60;64.50;;;;;;5074356;28;20648;-68
2024/01/03 03:08:52;;;;;;;1.35;1.10;;;18.60;64.50;;;;;;5074516;28;20300;-67
2024/01/03 03:11:18;;;;;;;2.03;1.10;;;18.60;64.40;;;;;;5087698;28;20287;-68
2024/01/03 03:13:44;;;;;;;2.10;1.23;;;18.60;64.40;;;;;;5072057;28;20787;-68
2024/01/03 03:16:09;;;;;;;1.67;1.25;;;18.60;64.40;;;;;;5082910;28;20273;-68
2024/01/03 03:18:35;;;;;;;2.42;1.52;;;18.70;64.50;;;;;;5074526;28;20193;-68
2024/01/03 03:21:01;;;;;;;1.80;1.35;;;18.60;64.40;;;;;;5087450;28;20193;-67
2024/01/03 03:23:27;;;;;;;1.30;1.20;;;18.60;64.40;;;;;;5090850;28;20209;-67
2024/01/03 03:25:53;;;;;;;1.48;1.20;;;18.60;64.40;;;;;;5090727;28;20192;-68
2024/01/03 03:28:21;;;;;;;2.45;1.13;;;18.70;64.50;;;;;;5087497;28;20216;-68
2024/01/03 03:30:47;;;;;;;2.05;1.15;;;18.60;64.40;;;;;;5091249;28;20268;-67
2024/01/03 03:33:12;;;;;;;1.52;1.35;;;18.60;64.40;;;;;;5090939;28;20292;-67
2024/01/03 03:35:38;;;;;;;1.40;1.30;;;18.60;64.40;;;;;;5074089;28;20199;-68
2024/01/03 03:38:04;;;;;;;1.65;1.20;;;18.60;64.40;;;;;;5091885;28;20189;-67
2024/01/03 03:40:30;;;;;;;1.10;1.00;;;18.60;64.30;;;;;;5090460;28;20192;-68
2024/01/03 03:42:55;;;;;;;1.20;1.10;;;18.60;64.40;;;;;;5073547;28;20261;-68
2024/01/03 03:45:22;;;;;;;1.55;1.00;;;18.60;64.30;;;;;;5103230;28;20187;-67
2024/01/03 03:47:47;;;;;;;1.45;0.98;;;18.60;64.30;;;;;;5100295;28;20212;-67
2024/01/03 03:50:13;;;;;;;1.15;0.98;;;18.60;64.30;;;;;;5081892;28;20185;-67
2024/01/03 03:52:40;;;;;;;0.98;0.90;;;18.60;64.40;;;;;;5099005;28;20215;-68
2024/01/03 03:55:07;;;;;;;2.03;1.05;;;18.60;64.20;;;;;;5094875;28;20250;-67
2024/01/03 03:57:34;;;;;;;1.67;0.90;;;18.60;64.30;;;;;;5073491;28;20195;-67
2024/01/03 04:00:03;;;;;;;1.25;1.02;;;18.60;64.30;;;;;;5077947;28;20226;-67
2024/01/03 04:02:38;;;;;;;1.00;1.00;;;18.60;64.20;;;;;;5089612;28;20212;-67
2024/01/03 04:05:04;;;;;;;1.40;1.00;;;18.60;64.20;;;;;;5073664;28;20233;-68
2024/01/03 04:07:31;;;;;;;1.35;0.77;;;18.60;64.30;;;;;;5087149;28;20178;-68
2024/01/03 04:09:57;;;;;;;1.05;0.88;;;18.60;64.20;;;;;;5085647;28;20181;-68
2024/01/03 04:12:23;;;;;;;1.80;1.20;;;18.60;64.20;;;;;;5089974;28;20180;-67
2024/01/03 04:14:49;;;;;;;1.10;0.90;;;18.60;64.30;;;;;;5073361;28;20192;-67
2024/01/03 04:17:16;;;;;;;1.42;0.98;;;18.60;64.20;;;;;;5086217;28;20193;-68
2024/01/03 04:19:41;;;;;;;1.00;1.00;;;18.60;64.20;;;;;;5090325;28;20193;-68
2024/01/03 04:22:08;;;;;;;1.30;0.98;;;18.60;64.20;;;;;;5089973;28;20185;-67
2024/01/03 04:24:33;;;;;;;1.10;1.00;;;18.60;64.20;;;;;;5088833;28;20205;-68
2024/01/03 04:26:59;;;;;;;2.20;1.20;;;18.60;64.20;;;;;;5111394;28;20215;-68
2024/01/03 04:29:25;;;;;;;1.40;1.00;;;18.60;64.20;;;;;;5076344;28;20207;-68
2024/01/03 04:31:50;;;;;;;1.33;0.85;;;18.60;64.20;;;;;;5071031;28;20186;-68
2024/01/03 04:34:16;;;;;;;1.27;1.17;;;18.60;64.20;;;;;;5094032;28;20209;-67
2024/01/03 04:36:42;;;;;;;1.40;1.05;;;18.60;64.20;;;;;;5094927;28;20180;-68
2024/01/03 04:39:07;;;;;;;0.98;0.88;;;18.60;64.20;;;;;;5102221;28;20193;-67
2024/01/03 04:41:33;;;;;;;1.00;0.95;;;18.60;64.20;;;;;;5083391;28;20201;-68
2024/01/03 04:43:59;;;;;;;1.00;0.70;;;18.60;64.20;;;;;;5089002;28;20212;-67
2024/01/03 04:46:24;;;;;;;1.10;0.90;;;18.60;64.20;;;;;;5087670;28;20190;-67
2024/01/03 04:48:50;;;;;;;1.25;1.15;;;18.60;64.10;;;;;;5105867;28;20666;-67
2024/01/03 04:51:16;;;;;;;1.42;0.90;;;18.60;64.20;;;;;;5098274;28;20238;-67
2024/01/03 04:53:43;;;;;;;0.98;0.98;;;18.60;64.10;;;;;;5099392;28;20253;-68
2024/01/03 04:56:09;;;;;;;1.60;1.00;;;18.60;64.20;;;;;;5080324;28;20181;-67
2024/01/03 04:58:34;;;;;;;1.23;0.90;;;18.60;64.10;;;;;;5080311;28;20195;-68
2024/01/03 05:01:00;;;;;;;1.13;0.93;;;18.60;64.10;;;;;;5076577;28;20192;-67
2024/01/03 05:03:26;;;;;;;1.48;0.95;;;18.60;64.10;;;;;;5083016;28;20568;-68
2024/01/03 05:05:51;;;;;;;0.80;0.80;;;18.60;64.10;;;;;;5083992;28;20189;-66
2024/01/03 05:08:17;;;;;;;1.45;1.08;;;18.60;64.00;;;;;;5081466;28;20212;-67
2024/01/03 05:10:43;;;;;;;1.25;0.80;;;18.60;64.00;;;;;;5099844;28;20217;-68
2024/01/03 05:13:08;;;;;;;0.88;0.88;;;18.60;64.00;;;;;;5101171;28;20219;-67
2024/01/03 05:15:34;;;;;;;1.48;0.77;;;18.60;64.10;;;;;;5097148;28;20180;-68
2024/01/03 05:18:00;;;;;;;1.20;1.10;;;18.60;64.00;;;;;;5083166;28;20185;-68
2024/01/03 05:20:26;;;;;;;1.27;0.90;;;18.60;64.00;;;;;;5093303;28;20581;-68
2024/01/03 05:22:51;;;;;;;0.80;0.80;;;18.60;64.00;;;;;;5096520;28;20216;-68
2024/01/03 05:25:17;;;;;;;1.35;0.77;;;18.60;64.00;;;;;;5096336;28;20193;-68
2024/01/03 05:27:43;;;;;;;0.93;0.68;;;18.60;64.00;;;;;;5096181;28;20211;-68
2024/01/03 05:30:09;;;;;;;1.13;1.00;;;18.60;64.00;;;;;;5076240;28;20276;-68
2024/01/03 05:32:35;;;;;;;1.08;0.65;;;18.60;64.00;;;;;;5092927;28;20227;-67
2024/01/03 05:35:01;;;;;;;0.70;0.70;;;18.60;64.00;;;;;;5096436;28;20656;-68
2024/01/03 05:37:26;;;;;;;0.82;0.82;;;18.60;63.90;;;;;;5109782;28;20185;-68
2024/01/03 05:39:52;;;;;;;0.85;0.80;;;18.60;63.90;;;;;;5093923;28;20192;-68
2024/01/03 05:42:18;;;;;;;1.23;0.80;;;18.60;63.90;;;;;;5103932;28;20184;-68
2024/01/03 05:44:44;;;;;;;1.27;1.10;;;18.60;63.90;;;;;;5101229;28;20181;-67
2024/01/03 05:47:09;;;;;;;1.15;0.63;;;18.60;64.00;;;;;;5092543;28;20656;-68
2024/01/03 05:49:35;;;;;;;1.25;1.00;;;18.60;64.00;;;;;;5094143;28;20204;-68
2024/01/03 05:52:01;;;;;;;0.75;0.75;;;18.60;64.00;;;;;;5075933;28;20231;-68
2024/01/03 05:54:28;;;;;;;0.82;0.82;;;18.60;63.90;;;;;;5092673;28;20212;-68
2024/01/03 05:56:54;;;;;;;0.73;0.73;;;18.50;63.80;;;;;;5092706;28;20189;-67
2024/01/03 05:59:20;;;;;;;1.05;0.82;;;18.60;63.90;;;;;;5076546;28;20185;-67
2024/01/03 06:01:46;;;;;;;1.55;0.90;;;18.60;64.00;;;;;;5076832;28;20199;-67
2024/01/03 06:04:13;;;;;;;0.70;0.60;;;18.60;64.00;;;;;;5109900;28;20200;-67
2024/01/03 06:06:41;;;;;;;0.80;0.80;;;18.60;63.90;;;;;;5084868;28;20188;-67
2024/01/03 06:09:07;;;;;;;0.82;0.70;;;18.60;64.00;;;;;;5099487;28;20208;-67
2024/01/03 06:11:34;;;;;;;1.08;0.90;;;18.60;63.90;;;;;;5089196;28;20189;-68
2024/01/03 06:13:59;;;;;;;1.52;0.70;;;18.60;63.90;;;;;;5077799;28;20215;-68
2024/01/03 06:16:25;;;;;;;1.13;0.88;;;18.60;63.90;;;;;;5107789;28;20178;-67
2024/01/03 06:18:51;;;;;;;0.77;0.77;;;18.60;64.00;;;;;;5080422;28;20216;-67
2024/01/03 06:21:16;;;;;;;1.10;1.02;;;18.60;63.90;;;;;;5108721;28;20693;-68
2024/01/03 06:23:42;;;;;;;0.85;0.70;;;18.60;63.90;;;;;;5098616;28;20210;-67
2024/01/03 06:26:08;;;;;;;0.80;0.80;;;18.60;63.90;;;;;;5097290;28;20193;-68
2024/01/03 06:28:34;;;;;;;1.17;0.90;;;18.60;63.90;;;;;;5108739;28;20205;-68
2024/01/03 06:31:02;;;;;;;1.05;0.80;;;18.60;63.90;;;;;;5084288;28;20197;-67
2024/01/03 06:33:28;;;;;;;0.68;0.68;;;18.60;63.90;;;;;;5089362;28;20205;-68
2024/01/03 06:35:54;;;;;;;0.80;0.80;;;18.60;64.00;;;;;;5074124;28;20242;-67
2024/01/03 06:38:20;;;;;;;0.80;0.80;;;18.60;63.90;;;;;;5091325;28;20262;-68
2024/01/03 06:40:46;;;;;;;0.80;0.70;;;18.60;63.90;;;;;;5095092;28;20230;-67
2024/01/03 06:43:11;;;;;;;0.77;0.77;;;18.60;63.90;;;;;;5091583;28;20209;-67
2024/01/03 06:45:37;;;;;;;1.10;0.70;;;18.50;63.80;;;;;;5091974;28;20185;-67
2024/01/03 06:48:03;;;;;;;0.98;0.70;;;18.60;63.90;;;;;;5092110;28;20208;-67
2024/01/03 06:50:29;;;;;;;1.05;0.77;;;18.60;64.00;;;;;;5083980;28;20197;-67
2024/01/03 06:52:54;;;;;;;1.05;0.80;;;18.50;63.80;;;;;;5095631;28;20284;-67
2024/01/03 06:55:20;;;;;;;1.50;0.95;;;18.60;64.00;;;;;;5089266;28;20257;-67
2024/01/03 06:57:48;;;;;;;1.13;1.00;;;18.60;63.90;;;;;;5093116;28;20191;-67
2024/01/03 07:00:15;;;;;;;1.23;0.93;;;18.60;64.00;;;;;;5091891;28;20192;-67
2024/01/03 07:02:41;;;;;;;0.95;0.70;;;18.60;63.90;;;;;;5108199;28;20261;-67
2024/01/03 07:05:07;;;;;;;2.35;0.80;;;18.50;63.80;;;;;;5104374;28;20181;-67
2024/01/03 07:07:32;;;;;;;1.08;0.60;;;18.50;63.90;;;;;;5094030;28;20615;-68
2024/01/03 07:09:58;;;;;;;1.42;1.00;;;18.60;63.90;;;;;;5090729;28;20185;-68
2024/01/03 07:12:24;;;;;;;1.25;0.90;;;18.60;63.90;;;;;;5094686;28;20180;-67
2024/01/03 07:14:50;;;;;;;2.83;1.13;;;18.60;63.90;;;;;;5076947;28;20188;-67
2024/01/03 07:17:15;;;;;;;1.35;1.10;;;18.60;64.20;;;;;;5093121;28;20185;-67
2024/01/03 07:19:41;;;;;;;1.20;0.80;;;18.60;64.20;;;;;;5106167;28;20250;-67
2024/01/03 07:22:07;;;;;;;1.42;1.10;;;18.60;64.10;;;;;;5088948;28;20573;-67
2024/01/03 07:24:36;;;;;;;1.25;0.90;;;18.60;64.10;;;;;;5088975;28;20209;-67
2024/01/03 07:27:02;;;;;;;2.05;0.98;;;18.60;64.10;;;;;;5103362;28;20221;-67
2024/01/03 07:29:28;;;;;;;1.77;0.88;;;18.60;64.10;;;;;;5071581;28;20236;-67
2024/01/03 07:31:54;;;;;;;2.28;0.98;;;18.60;64.10;;;;;;5075698;28;20212;-67
2024/01/03 07:34:19;;;;;;;1.08;0.80;;;18.60;64.20;;;;;;5104838;28;20751;-67
2024/01/03 07:36:45;;;;;;;1.52;0.98;;;18.60;64.20;;;;;;5082245;28;20183;-67
2024/01/03 07:39:11;;;;;;;2.13;1.20;;;18.60;64.20;;;;;;5087727;28;20193;-67
2024/01/03 07:41:37;;;;;;;0.90;0.70;;;18.60;64.10;;;;;;5087252;28;20185;-67
2024/01/03 07:44:03;;;;;;;2.50;0.90;;;18.60;64.10;;;;;;5075457;28;20223;-67
2024/01/03 07:46:29;;;;;;;1.13;0.80;;;18.60;64.20;;;;;;5090013;28;20635;-67
2024/01/03 07:48:55;;;;;;;1.27;0.70;;;18.60;64.10;;;;;;5090554;28;20209;-67
2024/01/03 07:51:21;;;;;;;1.00;0.90;;;18.60;64.20;;;;;;5090287;28;20192;-67
2024/01/03 07:53:46;;;;;;;0.68;0.57;;;18.60;64.10;;;;;;5083351;28;20253;-67
2024/01/03 07:56:12;;;;;;;1.05;0.75;;;18.60;64.10;;;;;;5091484;28;20181;-67
2024/01/03 07:58:38;;;;;;;1.40;1.00;;;18.60;64.10;;;;;;5091682;28;20189;-68
2024/01/03 08:01:04;;;;;;;1.15;0.93;;;18.60;64.10;;;;;;5074466;28;20200;-66
2024/01/03 08:03:30;;;;;;;1.15;0.90;;;18.60;64.10;;;;;;5092379;28;20224;-67
2024/01/03 08:05:56;;;;;;;2.30;0.90;;;18.60;64.10;;;;;;5087077;28;20194;-68
2024/01/03 08:08:22;;;;;;;1.92;0.80;;;18.60;64.00;;;;;;5087646;28;20223;-67
2024/01/03 08:10:47;;;;;;;1.40;0.70;;;18.60;64.10;;;;;;5090120;28;20184;-67
2024/01/03 08:13:13;;;;;;;0.68;0.63;;;18.60;64.10;;;;;;5074452;28;20210;-67
2024/01/03 08:15:39;;;;;;;0.88;0.80;;;18.50;64.00;;;;;;5094299;28;20184;-67
2024/01/03 08:18:04;;;;;;;1.13;0.95;;;18.50;64.00;;;;;;5111590;28;20196;-68
2024/01/03 08:20:30;;;;;;;1.17;0.80;;;18.60;64.10;;;;;;5090404;28;20181;-67
2024/01/03 08:22:56;;;;;;;1.42;0.85;;;18.60;64.10;;;;;;5107779;28;20213;-68
2024/01/03 08:25:23;;;;;;;1.17;0.88;;;18.60;64.10;;;;;;5091556;28;20211;-67
2024/01/03 08:27:49;;;;;;;0.80;0.80;;;18.60;64.10;;;;;;5086360;28;20184;-67
2024/01/03 08:30:15;;;;;;;0.98;0.80;;;18.60;64.10;;;;;;5094493;28;20180;-67
2024/01/03 08:32:40;;;;;;;0.93;0.80;;;18.60;64.10;;;;;;5095633;28;20236;-67
2024/01/03 08:35:07;;;;;;;0.70;0.65;;;18.60;64.00;;;;;;5112327;27;20183;-67
2024/01/03 08:37:33;;;;;;;1.77;0.90;;;18.60;64.10;;;;;;5111856;28;20723;-67
2024/01/03 08:40:03;;;;;;;0.75;0.68;;;18.50;64.00;;;;;;5095269;28;20234;-67
2024/01/03 08:42:29;;;;;;;0.93;0.82;;;18.60;64.10;;;;;;5092028;28;20224;-67
2024/01/03 08:44:55;;;;;;;2.00;1.00;;;18.60;64.10;;;;;;5076877;28;20245;-68
2024/01/03 08:47:20;;;;;;;1.25;0.80;;;18.50;64.00;;;;;;5091477;28;20217;-66
2024/01/03 08:49:46;;;;;;;1.23;0.80;;;18.50;64.00;;;;;;5076008;28;20282;-66
2024/01/03 08:52:12;;;;;;;1.13;1.00;;;18.60;64.10;;;;;;5093220;28;20185;-66
2024/01/03 08:54:39;;;;;;;1.85;0.93;;;18.60;64.20;;;;;;5109870;28;20192;-67
2024/01/03 08:57:05;;;;;;;2.33;0.90;;;18.60;64.10;;;;;;5110040;28;20192;-67
2024/01/03 08:59:31;;;;;;;1.17;0.90;;;18.60;64.20;;;;;;5110493;28;20193;-67
2024/01/03 09:01:56;;;;;;;1.75;0.70;;;18.60;64.40;;;;;;5076787;28;20184;-67
2024/01/03 09:04:23;;;;;;;0.90;0.70;;;18.60;64.20;;;;;;5090202;28;20206;-67
2024/01/03 09:06:52;;;;;;;0.90;0.77;;;18.60;64.30;;;;;;5093339;28;20240;-66
2024/01/03 09:09:18;;;;;;;1.70;0.95;;;18.70;64.30;;;;;;5094615;28;20204;-66
2024/01/03 09:11:44;;;;;;;0.98;0.80;;;18.60;64.20;;;;;;5109081;28;20181;-66
2024/01/03 09:14:10;;;;;;;3.78;0.85;;;18.60;64.20;;;;;;5104513;28;20213;-67
2024/01/03 09:16:36;;;;;;;1.17;0.88;;;18.60;64.20;;;;;;5102244;28;20193;-66
2024/01/03 09:19:02;;;;;;;1.42;0.80;;;18.60;64.20;;;;;;5110925;27;20212;-66
2024/01/03 09:21:30;;;;;;;0.70;0.70;;;18.60;64.20;;;;;;5093868;28;20199;-67
2024/01/03 09:23:57;;;;;;;1.30;1.00;;;18.60;64.20;;;;;;5094596;28;20299;-67
2024/01/03 09:26:23;;;;;;;0.80;0.77;;;18.60;64.20;;;;;;5077262;28;20628;-67
2024/01/03 09:28:49;;;;;;;1.50;0.93;;;18.60;64.20;;;;;;5101516;28;20244;-67
2024/01/03 09:31:15;;;;;;;1.52;1.10;;;18.60;64.20;;;;;;5076854;28;20195;-67
2024/01/03 09:33:41;;;;;;;1.15;0.80;;;18.60;64.20;;;;;;5109148;28;20224;-66
2024/01/03 09:36:19;;;;;;;0.95;0.75;;;18.60;64.30;;;;;;5067292;28;20192;-66
2024/01/03 09:38:46;;;;;;;1.20;0.80;;;18.60;64.20;;;;;;5092537;28;20192;-66
2024/01/03 09:41:12;;;;;;;1.42;0.95;;;18.60;64.20;;;;;;5075477;28;20227;-66
2024/01/03 09:43:52;;;;;;;1.02;0.70;;;18.60;64.20;;;;;;5074700;28;20205;-66
2024/01/03 09:46:20;;;;;;;2.95;0.93;;;18.60;64.20;;;;;;5084652;28;20639;-66
2024/01/03 09:48:47;;;;;;;2.33;0.73;;;18.60;64.10;;;;;;5091590;28;20209;-66
2024/01/03 09:51:12;;;;;;;1.42;0.88;;;18.60;64.10;;;;;;5108228;28;20181;-67
2024/01/03 09:53:40;;;;;;;1.40;0.60;;;18.70;64.30;;;;;;5093936;28;20209;-67
2024/01/03 09:56:06;;;;;;;0.80;0.80;;;18.70;64.20;;;;;;5092454;28;20207;-66
2024/01/03 09:58:33;;;;;;;1.05;0.85;;;18.60;64.10;;;;;;5075986;28;20189;-67
2024/01/03 10:00:59;;;;;;;1.08;0.77;;;18.60;64.10;;;;;;5093473;28;20678;-67
2024/01/03 10:03:25;;;;;;;1.77;0.88;;;18.60;64.10;;;;;;5109053;28;20213;-66
2024/01/03 10:06:10;;;;;;;1.00;0.80;;;18.60;64.00;;;;;;5079047;28;20189;-66
2024/01/03 10:08:36;;;;;;;0.93;0.73;;;18.60;64.10;;;;;;5100223;28;20216;-67
2024/01/03 10:11:16;;;;;;;0.73;0.70;;;18.70;64.20;;;;;;5093522;28;20225;-66
2024/01/03 10:13:42;;;;;;;2.55;1.05;;;18.60;64.10;;;;;;5091779;28;20303;-66
2024/01/03 10:16:08;;;;;;;0.65;0.57;;;18.70;64.30;;;;;;5091891;28;20196;-67
2024/01/03 10:18:34;;;;;;;1.35;0.80;;;18.60;64.20;;;;;;5091720;28;20188;-66
2024/01/03 10:21:13;;;;;;;1.17;0.68;;;18.60;65.00;;;;;;5100437;28;20192;-67
2024/01/03 10:23:39;;;;;;;0.95;0.80;;;18.60;64.20;;;;;;5091448;28;20201;-67
2024/01/03 10:26:04;;;;;;;1.00;0.90;;;18.60;64.10;;;;;;5097615;28;20192;-67
2024/01/03 10:28:30;;;;;;;1.30;0.90;;;18.60;64.10;;;;;;5078298;28;20213;-67
2024/01/03 10:30:57;;;;;;;0.80;0.80;;;18.70;64.20;;;;;;5091615;28;20196;-67
2024/01/03 10:33:23;;;;;;;0.85;0.60;;;18.60;64.00;;;;;;5091100;28;20607;-67
2024/01/03 10:35:49;;;;;;;1.20;0.80;;;18.70;64.20;;;;;;5075175;28;20285;-67
2024/01/03 10:38:17;;;;;;;2.58;0.93;;;18.60;64.10;;;;;;5095134;28;20283;-67
2024/01/03 10:40:44;;;;;;;1.80;1.00;;;18.60;64.20;;;;;;5084983;28;20189;-67
2024/01/03 10:43:10;;;;;;;1.10;1.00;;;18.60;64.20;;;;;;5080082;28;20200;-68
2024/01/03 10:45:36;;;;;;;0.77;0.63;;;18.60;64.20;;;;;;5095222;28;20189;-68
2024/01/03 10:48:03;;;;;;;1.90;0.80;;;18.60;65.00;;;;;;5086164;28;20212;-68
2024/01/03 10:50:29;;;;;;;1.00;0.60;;;18.60;64.20;;;;;;5086249;28;20256;-68
2024/01/03 10:52:59;;;;;;;0.82;0.70;;;18.60;64.30;;;;;;5099559;28;20250;-68
2024/01/03 10:55:37;;;;;;;1.13;0.80;;;18.60;64.20;;;;;;5082102;28;20195;-68
2024/01/03 10:58:17;;;;;;;1.52;0.80;;;18.70;64.30;;;;;;5091338;28;20322;-68
2024/01/03 11:00:48;;;;;;;1.10;0.90;;;18.70;64.30;;;;;;5091067;28;20215;-68
2024/01/03 11:03:39;;;;;;;1.02;0.77;;;18.60;64.20;;;;;;5074285;28;20229;-68
2024/01/03 11:06:19;;;;;;;1.00;0.63;;;18.60;64.20;;;;;;5087199;28;20537;-68
2024/01/03 11:08:57;;;;;;;1.52;0.63;;;18.70;64.30;;;;;;5084150;28;20222;-67
2024/01/03 11:11:38;;;;;;;1.92;0.93;;;18.60;64.10;;;;;;5099144;28;20271;-69
2024/01/03 11:14:16;;;;;;;0.63;0.63;;;18.60;64.10;;;;;;5087866;28;20226;-68
2024/01/03 11:16:42;;;;;;;0.80;0.80;;;18.60;64.10;;;;;;5101177;28;20245;-69
2024/01/03 11:19:09;;;;;;;0.80;0.80;;;18.70;64.20;;;;;;5090970;28;20192;-69
2024/01/03 11:21:35;;;;;;;2.00;0.65;;;18.60;64.10;;;;;;5098794;28;20246;-68
2024/01/03 11:24:07;;;;;;;2.08;0.80;;;18.70;64.20;;;;;;5082357;28;20204;-67
2024/01/03 11:26:52;;;;;;;1.08;0.60;;;18.70;64.10;;;;;;5107661;28;20188;-69
2024/01/03 11:29:41;;;;;;;1.08;0.70;;;18.60;64.00;;;;;;5096144;28;20212;-68
2024/01/03 11:32:10;;;;;;;2.25;0.60;;;18.70;64.20;;;;;;5090684;28;20195;-68
2024/01/03 11:34:40;;;;;;;0.90;0.68;;;18.70;64.20;;;;;;5073676;28;20248;-68
2024/01/03 11:37:11;;;;;;;1.27;0.70;;;18.70;64.20;;;;;;5086211;28;20223;-69
2024/01/03 11:39:43;;;;;;;0.90;0.65;;;18.70;64.10;;;;;;5092714;28;20193;-68
2024/01/03 11:42:10;;;;;;;1.00;0.80;;;18.70;64.20;;;;;;5074274;28;20592;-68
2024/01/03 11:44:36;;;;;;;1.15;0.82;;;18.70;64.00;;;;;;5081810;28;20596;-69
2024/01/03 11:47:04;;;;;;;1.38;0.70;;;18.70;64.10;;;;;;5109677;28;20180;-69
2024/01/03 11:49:31;;;;;;;0.50;0.50;;;18.70;64.10;;;;;;5090281;28;20220;-68
2024/01/03 11:51:58;;;;;;;1.30;0.88;;;18.60;64.10;;;;;;5075729;28;20271;-68
2024/01/03 11:54:25;;;;;;;1.30;0.90;;;18.70;64.10;;;;;;5095375;28;20220;-68
2024/01/03 11:56:51;;;;;;;1.55;0.70;;;18.60;64.00;;;;;;5081790;28;20189;-68
2024/01/03 11:59:22;;;;;;;1.05;0.95;;;18.70;64.10;;;;;;5079426;28;20189;-68
2024/01/03 12:01:56;;;;;;;0.77;0.70;;;18.70;64.10;;;;;;5074986;28;20241;-69
2024/01/03 12:04:22;;;;;;;0.93;0.60;;;18.70;64.20;;;;;;5093802;28;20200;-68
2024/01/03 12:06:48;;;;;;;1.77;0.70;;;18.70;64.10;;;;;;5109466;28;20191;-68
2024/01/03 12:09:15;;;;;;;0.77;0.50;;;18.60;64.00;;;;;;5073778;28;20739;-68
2024/01/03 12:11:41;;;;;;;1.08;0.85;;;18.60;64.00;;;;;;5088676;28;20713;-67
2024/01/03 12:14:07;;;;;;;1.98;1.10;;;18.70;64.20;;;;;;5091492;28;20275;-68
2024/01/03 12:16:45;;;;;;;1.13;0.75;;;18.60;64.10;;;;;;5101695;28;20234;-68
2024/01/03 12:19:21;;;;;;;1.52;0.95;;;18.60;64.10;;;;;;5088600;28;20184;-68
2024/01/03 12:22:01;;;;;;;1.95;0.80;;;18.60;64.20;;;;;;5071545;28;20283;-68
2024/01/03 12:24:41;;;;;;;3.42;0.70;;;18.60;64.30;;;;;;5086572;28;20238;-68
2024/01/03 12:27:08;;;;;;;2.63;0.90;;;18.70;64.30;;;;;;5077908;28;20198;-68
2024/01/03 12:29:39;;;;;;;1.98;0.73;;;18.70;64.30;;;;;;5093223;28;20227;-67
2024/01/03 12:32:14;;;;;;;0.95;0.60;;;18.70;64.30;;;;;;5071303;28;20181;-68
2024/01/03 12:34:41;;;;;;;1.00;0.68;;;18.60;64.20;;;;;;5095250;28;20187;-68
2024/01/03 12:37:07;;;;;;;0.73;0.60;;;18.70;64.30;;;;;;5078052;28;20182;-68
2024/01/03 12:39:37;;;;;;;0.70;0.60;;;18.60;64.20;;;;;;5102141;28;20214;-67
2024/01/03 12:42:09;;;;;;;0.95;0.70;;;18.60;64.20;;;;;;5082456;28;20185;-67
2024/01/03 12:44:42;;;;;;;0.85;0.60;;;18.60;64.20;;;;;;5080852;28;20223;-68
2024/01/03 12:47:10;;;;;;;0.88;0.77;;;18.60;64.20;;;;;;5095161;28;20233;-68
2024/01/03 12:49:40;;;;;;;0.68;0.60;;;18.60;64.20;;;;;;5101231;28;20228;-68